Time;durP1;ratioP1;P1;durP2;ratioP2;P2;SDS_P1;SDS_P2;PMS_P1;PMS_P2;Temp;Humidity;BMP_temperature;BMP_pressure;BME280_temperature;BME280_humidity;BME280_pressure;Samples;Min_cycle;Max_cycle;Signal;HPM_P1;HPM_P2
2023/06/11 00:00:14;;;;;;;12.18;6.80;;;;;;;18.28;88.03;98665.56;4990059;28;20354;-78
2023/06/11 00:02:41;;;;;;;9.88;5.85;;;;;;;18.21;89.14;98671.22;4992121;28;20050;-78
2023/06/11 00:05:09;;;;;;;12.18;6.45;;;;;;;18.04;90.01;98673.69;4991896;28;20029;-78
2023/06/11 00:07:37;;;;;;;9.23;6.60;;;;;;;18.23;89.66;98669.63;4991750;28;20026;-78
2023/06/11 00:10:04;;;;;;;7.72;5.72;;;;;;;18.28;89.02;98674.06;4988245;28;20054;-78
2023/06/11 00:12:30;;;;;;;7.65;6.10;;;;;;;18.16;89.26;98672.47;4991826;28;20019;-78
2023/06/11 00:14:55;;;;;;;9.77;6.13;;;;;;;18.19;89.32;98668.00;4990368;28;20049;-78
2023/06/11 00:17:21;;;;;;;9.65;5.90;;;;;;;18.16;89.45;98666.00;4990981;28;20521;-78
2023/06/11 00:19:47;;;;;;;10.38;5.20;;;;;;;18.18;88.91;98670.03;4993294;28;20061;-78
2023/06/11 00:22:14;;;;;;;11.35;5.45;;;;;;;18.16;89.42;98669.63;4995511;28;20507;-78
2023/06/11 00:24:41;;;;;;;8.02;5.65;;;;;;;18.16;88.98;98666.00;4994157;28;20026;-78
2023/06/11 00:27:06;;;;;;;6.90;5.47;;;;;;;18.19;88.80;98660.34;4990647;28;20038;-78
2023/06/11 00:29:32;;;;;;;9.45;5.75;;;;;;;18.03;89.94;98666.41;5009567;28;20042;-78
2023/06/11 00:31:57;;;;;;;8.02;5.85;;;;;;;18.01;90.79;98665.97;4994657;28;20026;-78
2023/06/11 00:34:23;;;;;;;10.82;5.72;;;;;;;17.96;91.22;98660.72;5010112;28;20034;-78
2023/06/11 00:36:48;;;;;;;9.15;6.05;;;;;;;17.99;91.02;98659.09;4994477;28;20029;-78
2023/06/11 00:39:14;;;;;;;7.03;5.47;;;;;;;18.13;90.56;98653.44;4993718;28;20073;-78
2023/06/11 00:41:45;;;;;;;6.68;5.80;;;;;;;18.14;89.96;98663.56;4994181;28;20033;-78
2023/06/11 00:44:21;;;;;;;10.80;5.93;;;;;;;18.07;90.48;98653.06;4995083;28;20073;-78
2023/06/11 00:46:48;;;;;;;9.13;5.78;;;;;;;18.16;90.58;98655.50;4993868;28;20113;-78
2023/06/11 00:49:15;;;;;;;8.10;6.43;;;;;;;18.27;89.61;98655.47;5009329;28;20030;-78
2023/06/11 00:51:44;;;;;;;6.97;5.95;;;;;;;18.28;89.28;98667.56;4994071;28;20030;-78
2023/06/11 00:54:13;;;;;;;8.38;5.53;;;;;;;18.18;88.27;98663.56;4993935;28;20400;-77
2023/06/11 00:56:48;;;;;;;8.02;6.43;;;;;;;18.12;87.57;98674.47;4994712;28;20027;-78
2023/06/11 00:59:15;;;;;;;6.22;5.63;;;;;;;18.16;87.68;98680.13;4994699;28;20023;-78
2023/06/11 01:02:22;;;;;;;7.97;6.25;;;;;;;18.18;87.49;98684.19;4994935;28;20022;-78
2023/06/11 01:04:53;;;;;;;6.47;5.80;;;;;;;18.20;87.12;98680.94;4993471;28;20109;-78
2023/06/11 01:07:19;;;;;;;9.30;7.03;;;;;;;18.28;86.93;98682.53;4991808;28;20034;-78
2023/06/11 01:09:45;;;;;;;9.15;6.68;;;;;;;18.39;86.16;98685.34;4994382;28;20532;-78
2023/06/11 01:12:12;;;;;;;8.60;6.90;;;;;;;18.24;86.83;98676.09;4994546;28;20019;-78
2023/06/11 01:14:38;;;;;;;11.00;7.28;;;;;;;18.27;87.00;98685.78;4994376;28;20450;-78
2023/06/11 01:17:15;;;;;;;9.38;7.13;;;;;;;18.13;87.38;98683.78;4993071;28;20493;-78
2023/06/11 01:20:10;;;;;;;7.70;6.80;;;;;;;18.12;87.25;98682.19;4994228;28;20024;-78
2023/06/11 01:23:04;;;;;;;9.02;6.40;;;;;;;18.09;88.02;98689.44;5007555;28;20045;-78
2023/06/11 01:25:46;;;;;;;9.00;6.90;;;;;;;18.32;86.38;98680.50;4993104;28;20023;-78
2023/06/11 01:28:20;;;;;;;7.28;6.28;;;;;;;18.34;86.41;98680.94;4994169;28;20031;-78
2023/06/11 01:30:49;;;;;;;10.55;7.55;;;;;;;18.51;85.01;98684.13;4993104;28;20022;-78
2023/06/11 01:33:18;;;;;;;10.75;6.47;;;;;;;18.26;85.58;98681.31;4994005;28;20357;-78
2023/06/11 01:35:44;;;;;;;8.30;6.35;;;;;;;18.09;86.51;98681.75;5009115;28;20023;-78
2023/06/11 01:38:10;;;;;;;8.73;6.32;;;;;;;18.07;86.31;98675.69;4991883;28;20026;-78
2023/06/11 01:40:36;;;;;;;9.40;7.63;;;;;;;18.02;86.36;98680.91;4991822;28;20030;-78
2023/06/11 01:43:04;;;;;;;9.63;5.85;;;;;;;18.08;86.30;98676.50;4994005;28;20386;-77
2023/06/11 01:45:33;;;;;;;11.40;6.18;;;;;;;17.86;86.94;98670.00;4992438;28;20034;-78
2023/06/11 01:48:02;;;;;;;7.57;5.95;;;;;;;18.05;86.58;98677.34;4992484;28;20039;-78
2023/06/11 01:50:28;;;;;;;7.15;5.70;;;;;;;17.87;86.71;98680.13;4992511;28;20027;-78
2023/06/11 01:52:53;;;;;;;8.60;6.72;;;;;;;17.97;86.50;98670.81;5007764;28;20030;-78
2023/06/11 01:55:18;;;;;;;8.35;5.65;;;;;;;18.03;86.24;98676.91;4992756;28;20509;-78
2023/06/11 01:57:46;;;;;;;13.07;6.00;;;;;;;17.87;87.13;98688.63;4993755;28;20493;-78
2023/06/11 02:00:12;;;;;;;9.48;6.20;;;;;;;18.01;86.48;98680.13;4993585;28;20033;-78
2023/06/11 02:02:39;;;;;;;7.80;6.25;;;;;;;17.70;87.77;98676.09;4993680;28;20026;-78
2023/06/11 02:05:05;;;;;;;9.20;5.88;;;;;;;17.66;89.21;98693.03;4992397;28;20374;-78
2023/06/11 02:07:31;;;;;;;10.85;6.03;;;;;;;17.69;88.67;98689.41;4992419;28;20033;-78
2023/06/11 02:09:56;;;;;;;10.10;6.35;;;;;;;17.49;90.01;98689.78;4991796;28;20054;-78
2023/06/11 02:12:22;;;;;;;9.23;6.70;;;;;;;17.47;90.53;98694.22;4991424;28;20266;-78
2023/06/11 02:14:47;;;;;;;11.57;6.05;;;;;;;17.25;91.61;98685.69;4993230;28;20058;-78
2023/06/11 02:17:13;;;;;;;10.68;6.00;;;;;;;17.11;92.82;98694.94;4993105;28;20033;-78
2023/06/11 02:19:38;;;;;;;8.07;6.35;;;;;;;17.10;93.22;98682.84;4993444;28;20400;-78
2023/06/11 02:22:04;;;;;;;10.45;6.30;;;;;;;17.21;92.09;98693.38;4990862;28;20022;-77
2023/06/11 02:24:30;;;;;;;14.80;6.20;;;;;;;17.36;91.54;98691.38;4993133;28;20040;-78
2023/06/11 02:26:55;;;;;;;10.65;6.45;;;;;;;17.29;92.06;98689.34;4993265;28;20025;-78
2023/06/11 02:29:21;;;;;;;8.85;6.07;;;;;;;17.32;91.28;98688.56;4992563;28;20126;-78
2023/06/11 02:31:46;;;;;;;14.38;5.85;;;;;;;17.23;91.39;98697.38;4992824;28;20018;-78
2023/06/11 02:34:12;;;;;;;8.88;5.50;;;;;;;17.38;91.88;98697.44;4993118;28;20022;-77
2023/06/11 02:36:37;;;;;;;9.45;6.45;;;;;;;17.37;91.05;98690.97;4991732;28;20063;-78
2023/06/11 02:39:03;;;;;;;7.97;6.30;;;;;;;17.39;91.66;98702.69;4992993;28;20449;-78
2023/06/11 02:41:29;;;;;;;12.10;6.13;;;;;;;17.39;91.29;98704.72;4992820;28;20102;-78
2023/06/11 02:43:55;;;;;;;15.88;7.03;;;;;;;17.54;90.44;98697.06;4992796;28;20050;-78
2023/06/11 02:46:21;;;;;;;10.85;5.97;;;;;;;17.45;90.70;98697.44;4992162;28;20030;-78
2023/06/11 02:48:46;;;;;;;11.45;6.13;;;;;;;17.33;91.48;98698.66;4992804;28;20025;-78
2023/06/11 02:51:12;;;;;;;19.00;6.97;;;;;;;17.32;92.05;98694.22;4991827;28;20445;-78
2023/06/11 02:53:37;;;;;;;13.35;7.43;;;;;;;17.22;92.39;98700.63;4992713;28;20056;-78
2023/06/11 02:56:03;;;;;;;9.55;6.38;;;;;;;17.15;92.84;98700.59;4991252;28;20045;-78
2023/06/11 02:58:28;;;;;;;13.90;6.80;;;;;;;17.27;92.63;98703.06;4992581;28;20026;-78
2023/06/11 03:00:54;;;;;;;17.38;7.60;;;;;;;17.16;93.29;98705.03;4992500;28;20030;-78
2023/06/11 03:03:19;;;;;;;17.58;7.65;;;;;;;17.26;92.85;98702.25;4991478;28;20026;-78
2023/06/11 03:05:45;;;;;;;19.92;7.38;;;;;;;17.21;93.32;98710.31;4991064;28;20018;-75
2023/06/11 03:08:10;;;;;;;10.88;7.07;;;;;;;17.22;93.66;98709.91;4990744;28;20416;-75
2023/06/11 03:10:36;;;;;;;10.57;8.05;;;;;;;17.21;93.11;98702.63;5005856;28;20444;-77
2023/06/11 03:13:02;;;;;;;20.65;7.38;;;;;;;17.39;92.47;98714.00;4990779;28;20121;-72
2023/06/11 03:15:28;;;;;;;12.80;6.13;;;;;;;17.21;92.65;98711.13;4991152;28;20523;-80
2023/06/11 03:17:53;;;;;;;9.52;7.47;;;;;;;17.33;92.42;98720.44;4992617;28;20030;-80
2023/06/11 03:20:19;;;;;;;14.02;7.25;;;;;;;17.20;93.44;98717.97;4993106;28;20026;-80
2023/06/11 03:22:44;;;;;;;11.38;7.03;;;;;;;17.31;93.37;98711.56;4994273;28;20029;-80
2023/06/11 03:25:10;;;;;;;11.85;7.55;;;;;;;17.25;93.66;98728.09;4993116;28;20473;-80
2023/06/11 03:27:38;;;;;;;13.15;7.25;;;;;;;17.41;93.47;98724.91;4994976;28;20030;-80
2023/06/11 03:30:05;;;;;;;14.20;6.82;;;;;;;17.37;93.41;98724.06;4994538;28;20054;-81
2023/06/11 03:32:30;;;;;;;18.73;7.32;;;;;;;17.58;92.29;98726.16;4995407;28;20018;-81
2023/06/11 03:34:56;;;;;;;16.10;7.45;;;;;;;17.53;92.61;98727.34;4994822;28;20029;-80
2023/06/11 03:37:21;;;;;;;12.77;6.90;;;;;;;17.34;93.19;98720.03;4996005;28;20030;-80
2023/06/11 03:39:47;;;;;;;13.68;8.35;;;;;;;17.31;93.41;98720.03;4995417;28;20104;-81
2023/06/11 03:42:12;;;;;;;8.60;7.18;;;;;;;17.30;93.90;98707.91;4994916;28;20034;-80
2023/06/11 03:44:38;;;;;;;10.05;8.05;;;;;;;17.43;93.07;98722.50;4995490;28;20025;-81
2023/06/11 03:47:04;;;;;;;8.65;7.00;;;;;;;17.43;92.91;98728.13;4996301;28;20030;-80
2023/06/11 03:49:30;;;;;;;9.85;7.25;;;;;;;17.45;92.74;98714.41;5009630;28;20113;-81
2023/06/11 03:51:55;;;;;;;13.23;7.88;;;;;;;17.38;93.22;98723.69;4996212;28;20544;-81
2023/06/11 03:54:22;;;;;;;14.63;7.47;;;;;;;17.43;93.56;98724.50;5011021;28;20060;-81
2023/06/11 03:56:47;;;;;;;13.30;7.80;;;;;;;17.54;92.75;98717.66;4999378;28;20106;-81
2023/06/11 03:59:13;;;;;;;12.48;7.97;;;;;;;17.60;92.03;98720.09;5001285;28;20413;-81
2023/06/11 04:01:38;;;;;;;7.82;7.03;;;;;;;17.66;92.29;98715.66;4997931;28;20479;-81
2023/06/11 04:04:04;;;;;;;9.60;6.90;;;;;;;17.60;92.00;98717.25;4999946;28;20528;-81
2023/06/11 04:06:35;;;;;;;10.13;7.43;;;;;;;17.63;92.02;98713.66;5000174;28;20026;-80
2023/06/11 04:09:00;;;;;;;9.20;7.03;;;;;;;17.63;92.19;98714.44;5000103;28;20022;-81
2023/06/11 04:11:26;;;;;;;17.20;8.70;;;;;;;17.80;91.69;98720.53;5014114;28;20046;-81
2023/06/11 04:13:52;;;;;;;11.15;7.43;;;;;;;17.79;91.35;98728.19;4997827;28;20407;-81
2023/06/11 04:16:17;;;;;;;11.98;7.10;;;;;;;17.92;90.58;98722.16;4999023;28;20022;-81
2023/06/11 04:18:43;;;;;;;14.50;7.00;;;;;;;18.06;89.42;98733.50;5000042;28;20018;-81
2023/06/11 04:21:09;;;;;;;12.55;7.25;;;;;;;18.07;88.47;98726.63;4999343;28;20472;-81
2023/06/11 04:23:34;;;;;;;9.73;7.00;;;;;;;18.06;88.88;98727.84;5013175;28;20030;-81
2023/06/11 04:26:02;;;;;;;11.52;7.03;;;;;;;18.13;87.89;98717.75;4993074;28;20097;-81
2023/06/11 04:28:28;;;;;;;15.00;6.93;;;;;;;18.23;88.51;98714.09;4980137;28;20026;-81
2023/06/11 04:30:57;;;;;;;11.57;6.63;;;;;;;18.18;87.94;98715.31;4980995;28;20038;-81
2023/06/11 04:33:32;;;;;;;12.20;7.27;;;;;;;18.22;88.24;98716.13;4983259;28;20093;-81
2023/06/11 04:36:01;;;;;;;15.27;7.55;;;;;;;18.25;88.05;98725.81;4996757;28;20477;-81
2023/06/11 04:38:29;;;;;;;13.52;6.95;;;;;;;18.40;87.59;98714.47;4996058;28;20053;-82
2023/06/11 04:40:56;;;;;;;11.35;7.25;;;;;;;18.32;86.88;98722.97;4993170;28;20532;-82
2023/06/11 04:43:25;;;;;;;15.18;7.38;;;;;;;18.42;86.23;98717.69;4992619;28;20018;-79
2023/06/11 04:45:55;;;;;;;8.65;7.03;;;;;;;18.46;86.01;98722.16;4992099;28;20053;-81
2023/06/11 04:48:25;;;;;;;8.23;6.88;;;;;;;18.32;86.81;98711.66;5011103;28;20022;-81
2023/06/11 04:50:51;;;;;;;10.05;6.68;;;;;;;18.45;86.65;98708.38;4997754;28;20056;-81
2023/06/11 04:53:22;;;;;;;9.40;6.88;;;;;;;18.42;87.60;98717.69;4994566;28;20026;-75
2023/06/11 04:55:54;;;;;;;8.63;7.68;;;;;;;18.53;87.07;98724.16;4987005;28;20022;-79
2023/06/11 04:58:21;;;;;;;11.35;7.70;;;;;;;18.60;86.83;98718.50;4988142;28;20030;-79
2023/06/11 05:00:51;;;;;;;10.32;7.03;;;;;;;18.80;85.57;98724.50;4993577;28;20065;-75
2023/06/11 05:03:18;;;;;;;8.63;6.80;;;;;;;18.97;84.68;98718.38;4984071;28;20605;-77
2023/06/11 05:05:53;;;;;;;12.75;7.07;;;;;;;19.16;83.78;98726.41;4985562;28;20489;-77
2023/06/11 05:08:20;;;;;;;9.85;6.20;;;;;;;19.37;82.97;98730.38;4983146;28;20026;-75
2023/06/11 05:10:46;;;;;;;8.10;6.45;;;;;;;19.53;81.47;98731.88;5005515;28;20129;-74
2023/06/11 05:13:12;;;;;;;7.05;6.35;;;;;;;19.54;80.95;98725.81;4990235;28;20118;-78
2023/06/11 05:15:38;;;;;;;11.82;6.97;;;;;;;19.52;80.42;98731.09;4990254;28;20027;-78
2023/06/11 05:18:03;;;;;;;20.33;6.85;;;;;;;19.59;80.54;98728.19;4984685;28;20041;-75
2023/06/11 05:20:29;;;;;;;9.43;6.80;;;;;;;19.69;79.71;98728.56;4989770;28;20587;-74
2023/06/11 05:22:58;;;;;;;10.18;6.05;;;;;;;19.71;79.23;98728.94;5005213;28;20058;-73
2023/06/11 05:25:28;;;;;;;9.77;6.00;;;;;;;19.89;79.48;98738.16;4992719;28;20023;-75
2023/06/11 05:27:55;;;;;;;17.25;5.97;;;;;;;20.02;78.12;98741.31;4984646;28;20030;-78
2023/06/11 05:30:24;;;;;;;11.25;6.30;;;;;;;20.12;77.27;98739.63;4990086;28;20440;-80
2023/06/11 05:32:54;;;;;;;7.97;6.63;;;;;;;20.17;77.33;98735.53;5001709;28;20420;-73
2023/06/11 05:35:20;;;;;;;7.90;5.90;;;;;;;20.17;76.50;98741.22;4987340;28;20518;-77
2023/06/11 05:37:46;;;;;;;7.05;6.00;;;;;;;20.24;76.78;98728.97;4998737;28;20461;-74
2023/06/11 05:40:12;;;;;;;10.55;6.40;;;;;;;20.30;76.24;98739.47;4982044;28;20101;-75
2023/06/11 05:42:38;;;;;;;8.98;6.85;;;;;;;20.52;75.97;98739.28;4988903;28;20030;-78
2023/06/11 05:45:05;;;;;;;19.42;6.65;;;;;;;20.71;74.97;98737.84;4982340;28;20018;-78
2023/06/11 05:47:32;;;;;;;18.42;6.53;;;;;;;20.77;73.85;98743.88;5008177;28;20018;-76
2023/06/11 05:49:58;;;;;;;6.18;5.57;;;;;;;20.90;73.40;98729.94;4980782;28;20018;-77
2023/06/11 05:52:23;;;;;;;11.77;5.95;;;;;;;21.01;72.06;98735.53;4988366;28;20033;-80
2023/06/11 05:54:49;;;;;;;10.00;5.38;;;;;;;21.06;71.37;98731.38;4982335;28;20030;-80
2023/06/11 05:57:22;;;;;;;9.35;5.55;;;;;;;21.06;70.65;98737.88;5004668;28;20037;-78
2023/06/11 05:59:49;;;;;;;9.05;5.93;;;;;;;21.20;69.81;98736.91;5005008;28;20045;-78
2023/06/11 06:02:14;;;;;;;8.63;5.95;;;;;;;21.40;69.58;98734.22;5008599;28;20112;-79
2023/06/11 06:04:40;;;;;;;6.25;5.55;;;;;;;21.52;68.73;98737.72;4992390;28;20494;-79
2023/06/11 06:07:05;;;;;;;7.32;5.70;;;;;;;21.40;69.60;98733.38;4988140;28;20105;-79
2023/06/11 06:09:33;;;;;;;13.95;5.95;;;;;;;21.45;69.10;98733.72;4989669;28;20026;-79
2023/06/11 06:11:58;;;;;;;10.55;5.45;;;;;;;21.48;68.93;98734.09;4990571;28;20488;-75
2023/06/11 06:14:24;;;;;;;13.80;6.05;;;;;;;21.52;69.46;98729.97;4992699;28;20033;-75
2023/06/11 06:16:49;;;;;;;8.50;6.25;;;;;;;21.60;69.08;98742.09;4984291;28;20049;-74
2023/06/11 06:19:15;;;;;;;17.30;7.32;;;;;;;21.88;68.14;98745.75;4987435;28;20022;-76
2023/06/11 06:21:40;;;;;;;11.77;6.10;;;;;;;21.86;67.66;98745.38;4988814;28;20108;-74
2023/06/11 06:24:06;;;;;;;6.55;5.22;;;;;;;21.91;68.28;98738.41;4991903;28;20038;-74
2023/06/11 06:26:31;;;;;;;10.07;5.43;;;;;;;22.08;67.68;98742.19;4991928;28;20030;-75
2023/06/11 06:28:57;;;;;;;9.07;6.45;;;;;;;21.95;67.32;98737.09;4983076;28;20034;-76
2023/06/11 06:31:22;;;;;;;9.95;5.70;;;;;;;22.04;65.89;98736.56;4991157;28;20464;-76
2023/06/11 06:33:49;;;;;;;7.10;5.10;;;;;;;22.01;64.43;98743.91;4992451;28;20485;-77
2023/06/11 06:36:15;;;;;;;14.52;6.03;;;;;;;22.07;65.19;98740.56;4990596;28;20551;-76
2023/06/11 06:38:40;;;;;;;7.35;5.13;;;;;;;22.20;64.99;98738.72;4990555;28;20022;-76
2023/06/11 06:41:06;;;;;;;8.18;5.45;;;;;;;22.19;65.37;98745.66;4988694;28;20493;-75
2023/06/11 06:43:33;;;;;;;10.27;5.80;;;;;;;22.31;64.69;98744.25;4990501;28;20504;-74
2023/06/11 06:45:58;;;;;;;6.30;5.70;;;;;;;22.37;65.39;98741.72;4992337;28;20661;-74
2023/06/11 06:48:25;;;;;;;10.63;5.10;;;;;;;22.38;64.16;98731.94;4976352;28;20154;-74
2023/06/11 06:50:50;;;;;;;6.40;5.75;;;;;;;22.39;63.85;98739.22;4989826;28;20018;-74
2023/06/11 06:53:16;;;;;;;12.15;5.72;;;;;;;22.67;64.28;98737.13;5004766;28;20574;-74
2023/06/11 06:55:44;;;;;;;9.60;5.55;;;;;;;22.60;62.76;98740.91;4990646;28;20043;-75
2023/06/11 06:58:10;;;;;;;9.98;5.55;;;;;;;22.56;63.63;98732.44;4978307;28;20031;-76
2023/06/11 07:00:35;;;;;;;11.75;5.20;;;;;;;22.60;62.21;98728.72;4988487;28;20034;-76
2023/06/11 07:03:01;;;;;;;12.90;5.25;;;;;;;22.81;62.62;98730.34;4987471;28;20031;-75
2023/06/11 07:05:27;;;;;;;19.55;7.38;;;;;;;23.04;61.18;98723.78;4986131;28;20026;-74
2023/06/11 07:07:53;;;;;;;10.48;5.15;;;;;;;23.24;59.47;98720.94;5005176;28;20093;-76
2023/06/11 07:10:19;;;;;;;6.75;4.97;;;;;;;23.35;58.53;98723.56;4984290;28;20054;-74
2023/06/11 07:12:45;;;;;;;9.23;4.90;;;;;;;23.11;59.80;98732.19;4990111;28;20118;-73
2023/06/11 07:15:10;;;;;;;9.95;5.40;;;;;;;23.25;58.63;98719.69;5002559;28;20409;-73
2023/06/11 07:17:37;;;;;;;6.82;4.80;;;;;;;23.19;59.69;98717.78;4991343;28;20049;-75
2023/06/11 07:20:04;;;;;;;7.88;5.35;;;;;;;23.33;58.39;98723.22;4989127;28;20022;-72
2023/06/11 07:22:30;;;;;;;10.05;5.28;;;;;;;23.27;59.13;98717.22;4991139;28;20077;-73
2023/06/11 07:24:58;;;;;;;11.15;5.28;;;;;;;23.23;59.88;98718.50;4988984;28;20007;-72
2023/06/11 07:27:23;;;;;;;10.20;5.03;;;;;;;23.37;58.97;98720.28;4989691;28;20026;-76
2023/06/11 07:29:49;;;;;;;6.63;4.88;;;;;;;23.39;58.06;98723.50;4984827;28;20097;-76
2023/06/11 07:32:14;;;;;;;9.88;5.20;;;;;;;23.61;57.24;98720.16;4991811;28;20054;-75
2023/06/11 07:34:40;;;;;;;13.43;5.10;;;;;;;23.76;57.35;98717.75;4983853;28;20058;-79
2023/06/11 07:37:05;;;;;;;6.05;5.00;;;;;;;23.88;57.68;98714.19;4982815;28;20549;-79
2023/06/11 07:39:31;;;;;;;9.68;5.45;;;;;;;23.93;57.10;98721.44;4980506;28;20026;-78
2023/06/11 07:41:57;;;;;;;9.15;5.25;;;;;;;24.26;56.46;98715.75;4987287;28;20022;-79
2023/06/11 07:44:22;;;;;;;8.02;4.90;;;;;;;24.66;54.60;98715.50;4986369;28;20025;-78
2023/06/11 07:46:48;;;;;;;23.63;5.90;;;;;;;24.79;54.49;98717.66;4989195;28;20057;-75
2023/06/11 07:49:13;;;;;;;13.65;4.85;;;;;;;24.64;54.37;98718.03;4989319;28;20417;-74
2023/06/11 07:51:40;;;;;;;7.68;5.00;;;;;;;24.76;53.90;98715.66;4987341;28;20486;-74
2023/06/11 07:54:06;;;;;;;11.18;4.68;;;;;;;24.60;54.35;98719.38;4985218;28;20027;-75
2023/06/11 07:56:32;;;;;;;9.45;4.68;;;;;;;24.58;53.27;98716.97;4975271;28;20034;-74
2023/06/11 07:58:57;;;;;;;6.43;4.78;;;;;;;24.75;52.61;98717.75;4988599;28;20015;-77
2023/06/11 08:01:23;;;;;;;6.53;4.88;;;;;;;24.95;52.91;98716.78;4990082;28;20037;-76
2023/06/11 08:03:48;;;;;;;5.30;4.50;;;;;;;24.87;52.33;98713.34;4988275;28;20030;-76
2023/06/11 08:06:15;;;;;;;5.60;4.93;;;;;;;25.15;52.04;98708.03;4989335;28;20541;-77
2023/06/11 08:08:41;;;;;;;8.73;4.40;;;;;;;25.32;50.63;98719.44;4989357;28;20030;-75
2023/06/11 08:11:07;;;;;;;27.92;7.05;;;;;;;25.34;50.84;98716.91;4977106;28;20085;-74
2023/06/11 08:13:34;;;;;;;7.70;5.20;;;;;;;25.12;50.86;98728.97;4985624;28;20038;-75
2023/06/11 08:16:00;;;;;;;9.18;5.25;;;;;;;25.38;51.23;98718.41;4988552;28;20034;-75
2023/06/11 08:18:26;;;;;;;8.10;5.05;;;;;;;25.69;49.24;98716.28;4986268;28;20049;-77
2023/06/11 08:20:53;;;;;;;15.35;5.57;;;;;;;26.17;49.45;98716.38;4989044;28;20022;-77
2023/06/11 08:23:19;;;;;;;11.68;4.95;;;;;;;26.20;47.64;98718.34;4986114;28;20049;-76
2023/06/11 08:25:45;;;;;;;7.97;4.75;;;;;;;26.57;46.30;98706.44;4983488;28;20026;-78
2023/06/11 08:28:10;;;;;;;7.47;5.13;;;;;;;27.02;45.16;98713.84;4984106;28;20037;-77
2023/06/11 08:30:36;;;;;;;7.28;5.72;;;;;;;27.16;44.00;98712.50;4981297;28;20023;-77
2023/06/11 08:33:01;;;;;;;5.32;4.70;;;;;;;27.15;42.77;98716.66;4989376;28;20030;-78
2023/06/11 08:35:27;;;;;;;5.43;3.92;;;;;;;26.97;42.87;98717.31;4984917;28;20513;-77
2023/06/11 08:37:52;;;;;;;6.40;4.25;;;;;;;27.12;42.69;98711.03;4982473;28;20026;-79
2023/06/11 08:40:20;;;;;;;7.72;4.38;;;;;;;27.19;42.03;98717.28;4986158;28;20110;-80
2023/06/11 08:42:46;;;;;;;11.52;4.78;;;;;;;27.42;42.40;98711.56;4992172;28;20027;-79
2023/06/11 08:45:12;;;;;;;4.60;4.03;;;;;;;27.28;40.22;98715.75;4992013;28;20125;-79
2023/06/11 08:47:41;;;;;;;5.65;4.05;;;;;;;27.67;41.75;98713.44;4992600;28;20398;-79
2023/06/11 08:50:07;;;;;;;5.55;4.85;;;;;;;28.06;41.05;98715.22;4979370;28;20103;-80
2023/06/11 08:52:35;;;;;;;5.28;4.03;;;;;;;27.88;39.19;98708.13;5003076;28;20100;-80
2023/06/11 08:55:02;;;;;;;10.20;4.65;;;;;;;27.94;40.14;98711.97;4980156;28;20121;-80
2023/06/11 08:57:28;;;;;;;8.38;4.20;;;;;;;27.75;39.88;98709.03;4991997;28;20036;-78
2023/06/11 08:59:54;;;;;;;7.35;4.93;;;;;;;27.77;39.42;98707.75;4980491;28;20033;-80
2023/06/11 09:02:20;;;;;;;9.75;4.20;;;;;;;27.81;39.90;98706.34;4984743;28;20030;-80
2023/06/11 09:04:46;;;;;;;7.15;4.18;;;;;;;27.88;39.63;98696.63;4985259;28;20019;-80
2023/06/11 09:07:24;;;;;;;4.68;4.15;;;;;;;27.92;39.29;98703.00;4991419;28;20033;-82
2023/06/11 09:10:04;;;;;;;7.65;4.10;;;;;;;28.09;39.96;98703.53;4992382;28;20057;-81
2023/06/11 09:12:30;;;;;;;;;;;;;;;28.02;40.12;98693.16;4989717;28;20037;-79
2023/06/11 09:14:55;;;;;;;8.87;4.80;;;;;;;28.00;38.12;98687.09;4990158;28;19990;-81
2023/06/11 09:17:21;;;;;;;16.65;10.20;;;;;;;28.26;37.92;98694.69;4980282;28;20465;-81
2023/06/11 09:19:46;;;;;;;6.45;5.00;;;;;;;28.36;37.47;98687.69;4991348;28;20124;-81
2023/06/11 09:22:12;;;;;;;7.35;4.97;;;;;;;28.43;37.23;98698.06;4992800;28;20465;-79
2023/06/11 09:24:37;;;;;;;11.75;4.63;;;;;;;28.79;36.22;98689.91;4992384;28;20511;-74
2023/06/11 09:27:06;;;;;;;15.88;4.40;;;;;;;28.84;35.25;98681.47;4981011;28;20030;-80
2023/06/11 09:29:32;;;;;;;11.38;4.40;;;;;;;28.89;35.65;98680.03;4981624;28;20121;-78
2023/06/11 09:32:05;;;;;;;14.50;9.77;;;;;;;29.33;36.07;98684.59;4992578;28;20461;-80
2023/06/11 09:34:30;;;;;;;6.57;4.03;;;;;;;29.39;34.03;98676.09;4977583;28;20043;-79
2023/06/11 09:36:56;;;;;;;5.35;4.53;;;;;;;29.47;35.30;98683.16;4990976;28;20030;-78
2023/06/11 09:39:22;;;;;;;8.02;4.03;;;;;;;29.41;33.53;98690.78;4985258;28;20073;-81
2023/06/11 09:41:50;;;;;;;9.75;4.88;;;;;;;29.49;32.54;98683.44;4989942;28;20071;-78
2023/06/11 09:44:19;;;;;;;9.45;4.18;;;;;;;29.67;32.95;98676.00;4991744;28;20524;-78
2023/06/11 09:46:48;;;;;;;4.65;4.25;;;;;;;29.58;32.38;98676.84;4988938;28;20109;-80
2023/06/11 09:49:15;;;;;;;8.25;4.10;;;;;;;29.43;32.45;98673.88;4986280;28;20484;-76
2023/06/11 09:51:42;;;;;;;8.88;4.25;;;;;;;29.32;32.55;98665.72;4987149;28;20022;-79
2023/06/11 09:54:08;;;;;;;5.43;3.58;;;;;;;29.57;32.20;98663.75;4985562;28;20073;-76
2023/06/11 09:56:37;;;;;;;12.65;4.45;;;;;;;29.55;33.74;98666.31;4985817;28;20152;-75
2023/06/11 09:59:04;;;;;;;10.65;4.95;;;;;;;29.29;32.01;98658.84;4972604;28;20157;-74
2023/06/11 10:01:30;;;;;;;9.48;4.15;;;;;;;29.54;32.37;98658.97;4991484;28;20038;-74
2023/06/11 10:04:00;;;;;;;7.13;4.18;;;;;;;29.66;30.39;98657.94;4994135;28;20062;-73
2023/06/11 10:06:37;;;;;;;5.40;4.17;;;;;;;29.87;30.99;98657.34;4987540;28;20029;-77
2023/06/11 10:09:07;;;;;;;6.28;3.83;;;;;;;29.92;31.60;98659.56;4978578;28;20465;-78
2023/06/11 10:11:41;;;;;;;7.75;4.05;;;;;;;29.48;31.22;98643.59;4982809;28;20050;-74
2023/06/11 10:14:15;;;;;;;5.13;3.58;;;;;;;29.72;31.68;98649.44;4986941;28;20772;-74
2023/06/11 10:16:50;;;;;;;4.38;3.38;;;;;;;30.04;31.34;98652.78;4987747;28;20109;-76
2023/06/11 10:19:17;;;;;;;7.82;4.30;;;;;;;30.21;30.99;98637.97;4980988;28;20419;-75
2023/06/11 10:21:50;;;;;;;5.30;4.15;;;;;;;30.38;30.42;98647.75;4987005;28;20402;-74
2023/06/11 10:24:22;;;;;;;6.25;3.85;;;;;;;30.24;30.32;98642.75;4988095;28;20073;-73
2023/06/11 10:27:07;;;;;;;9.77;5.43;;;;;;;30.31;28.40;98644.47;4986840;28;20042;-77
2023/06/11 10:29:37;;;;;;;7.32;3.72;;;;;;;30.22;29.40;98637.47;4986974;28;20572;-77
2023/06/11 10:32:03;;;;;;;7.65;3.47;;;;;;;29.93;28.92;98632.38;4986261;28;20749;-73
2023/06/11 10:34:39;;;;;;;10.43;4.10;;;;;;;30.16;29.80;98635.75;4982771;28;20044;-74
2023/06/11 10:37:05;;;;;;;4.47;3.60;;;;;;;30.66;30.09;98636.03;4981698;28;20022;-74
2023/06/11 10:39:31;;;;;;;6.32;3.20;;;;;;;30.43;29.52;98639.72;4997136;28;20035;-74
2023/06/11 10:42:02;;;;;;;7.90;3.70;;;;;;;30.25;30.70;98641.44;4975896;28;20433;-73
2023/06/11 10:44:32;;;;;;;5.57;3.22;;;;;;;30.54;29.39;98634.97;4982007;28;20117;-74
2023/06/11 10:47:00;;;;;;;7.38;4.43;;;;;;;30.36;30.30;98646.69;4976213;28;20035;-74
2023/06/11 10:49:27;;;;;;;6.25;3.50;;;;;;;30.37;29.59;98645.38;4982193;28;20038;-75
2023/06/11 10:51:53;;;;;;;6.10;2.85;;;;;;;30.29;29.21;98642.09;4987416;28;20045;-74
2023/06/11 10:54:26;;;;;;;9.23;3.25;;;;;;;30.48;29.75;98642.72;4975566;28;20045;-74
2023/06/11 10:56:52;;;;;;;7.80;2.90;;;;;;;30.85;28.97;98643.72;5000924;28;20030;-74
2023/06/11 10:59:19;;;;;;;4.53;3.20;;;;;;;30.94;28.08;98637.84;4983770;28;20034;-74
2023/06/11 11:01:45;;;;;;;6.45;3.58;;;;;;;31.13;27.86;98634.78;4987242;28;20811;-74
2023/06/11 11:04:10;;;;;;;7.38;3.20;;;;;;;30.80;28.77;98639.44;4978685;28;20092;-77
2023/06/11 11:06:36;;;;;;;4.25;2.70;;;;;;;30.70;27.93;98637.94;4999175;28;20243;-76
2023/06/11 11:09:02;;;;;;;4.22;3.50;;;;;;;30.56;27.97;98634.50;4992136;28;20106;-76
2023/06/11 11:11:29;;;;;;;6.22;3.58;;;;;;;30.49;28.12;98641.44;4988793;28;20046;-77
2023/06/11 11:13:57;;;;;;;6.53;3.65;;;;;;;30.57;28.54;98630.31;4982306;28;20034;-77
2023/06/11 11:16:23;;;;;;;8.07;4.28;;;;;;;30.98;28.74;98632.69;4990829;28;20161;-77
2023/06/11 11:18:49;;;;;;;4.88;3.78;;;;;;;31.11;27.97;98632.38;4971514;28;20768;-77
2023/06/11 11:21:15;;;;;;;10.60;3.25;;;;;;;31.34;28.09;98647.22;4983589;28;20034;-77
2023/06/11 11:23:48;;;;;;;31.35;6.68;;;;;;;31.05;33.21;98646.69;4989728;28;20476;-76
2023/06/11 11:26:14;;;;;;;19.60;4.82;;;;;;;30.24;34.68;98648.50;4990325;28;20046;-76
2023/06/11 11:28:40;;;;;;;18.42;4.95;;;;;;;29.21;36.49;98642.41;4990563;28;20487;-76